createdAt,value
2018-09-14T00:00:39.960Z,100627.13
2018-09-14T00:03:08.610Z,100632.63
2018-09-14T00:05:37.014Z,100626.25
2018-09-14T00:08:05.774Z,100632.70
2018-09-14T00:10:34.491Z,100634.25
2018-09-14T00:13:03.162Z,100633.36
2018-09-14T00:15:31.607Z,100627.20
2018-09-14T00:18:00.296Z,100628.61
2018-09-14T00:20:28.734Z,100632.58
2018-09-14T00:22:57.231Z,100629.70
2018-09-14T00:25:25.779Z,100626.51
2018-09-14T00:27:54.186Z,100629.71
2018-09-14T00:30:22.690Z,100625.89
2018-09-14T00:32:51.171Z,100618.14
2018-09-14T00:35:19.654Z,100618.77
2018-09-14T00:37:48.085Z,100627.05
2018-09-14T00:40:16.838Z,100613.41
2018-09-14T00:42:45.378Z,100631.38
2018-09-14T00:45:13.838Z,100627.08
2018-09-14T00:47:42.274Z,100626.73
2018-09-14T00:50:10.679Z,100623.03
2018-09-14T00:52:39.155Z,100618.97
2018-09-14T00:55:07.743Z,100623.55
2018-09-14T00:57:36.210Z,100625.95
2018-09-14T01:00:05.073Z,100626.08
2018-09-14T01:02:33.559Z,100627.03
2018-09-14T01:05:01.992Z,100621.52
2018-09-14T01:07:30.550Z,100619.83
2018-09-14T01:09:59.011Z,100617.75
2018-09-14T01:12:27.446Z,100622.52
2018-09-14T01:14:55.962Z,100623.65
2018-09-14T01:17:24.579Z,100631.80
2018-09-14T01:19:53.354Z,100631.97
2018-09-14T01:22:21.882Z,100626.90
2018-09-14T01:24:50.450Z,100626.34
2018-09-14T01:27:18.939Z,100625.47
2018-09-14T01:29:47.357Z,100622.81
2018-09-14T01:32:16.015Z,100624.20
2018-09-14T01:34:44.786Z,100625.16
2018-09-14T01:37:13.203Z,100621.20
2018-09-14T01:39:41.678Z,100616.36
2018-09-14T01:42:10.168Z,100620.48
2018-09-14T01:44:38.634Z,100620.08
2018-09-14T01:47:07.311Z,100625.80
2018-09-14T01:49:35.835Z,100621.61
2018-09-14T01:52:04.291Z,100623.39
2018-09-14T01:54:33.036Z,100623.44
2018-09-14T01:57:01.507Z,100622.85
2018-09-14T01:59:29.987Z,100619.45
2018-09-14T02:01:58.762Z,100623.20
2018-09-14T02:04:27.195Z,100618.44
2018-09-14T02:06:55.674Z,100613.05
2018-09-14T02:09:24.566Z,100616.31
2018-09-14T02:11:53.021Z,100612.36
2018-09-14T02:14:21.446Z,100603.91
2018-09-14T02:16:49.882Z,100615.20
2018-09-14T02:19:18.298Z,100612.81
2018-09-14T02:21:46.748Z,100618.19
2018-09-14T02:24:15.314Z,100620.81
2018-09-14T02:26:43.838Z,100618.77
2018-09-14T02:29:12.335Z,100612.02
2018-09-14T02:31:40.794Z,100612.19
2018-09-14T02:34:09.244Z,100606.89
2018-09-14T02:36:37.739Z,100614.00
2018-09-14T02:39:07.891Z,100610.45
2018-09-14T02:41:36.347Z,100614.48
2018-09-14T02:44:04.858Z,100613.16
2018-09-14T02:46:33.559Z,100609.98
2018-09-14T02:49:02.032Z,100609.82
2018-09-14T02:51:30.531Z,100612.10
2018-09-14T02:53:59.019Z,100612.91
2018-09-14T02:56:27.467Z,100611.57
2018-09-14T02:58:55.864Z,100612.83
2018-09-14T03:01:24.472Z,100610.37
2018-09-14T03:03:52.893Z,100617.42
2018-09-14T03:06:21.408Z,100618.12
2018-09-14T03:08:50.273Z,100618.80
2018-09-14T03:11:18.774Z,100609.27
2018-09-14T03:13:47.302Z,100615.74
2018-09-14T03:16:16.100Z,100605.03
2018-09-14T03:18:44.811Z,100603.12
2018-09-14T03:21:13.274Z,100607.61
2018-09-14T03:23:42.442Z,100603.24
2018-09-14T03:26:11.001Z,100604.62
2018-09-14T03:28:39.419Z,100604.76
2018-09-14T03:31:08.140Z,100603.19
2018-09-14T03:33:36.589Z,100601.67
2018-09-14T03:36:05.187Z,100604.02
2018-09-14T03:38:33.719Z,100600.80
2018-09-14T03:41:02.179Z,100600.23
2018-09-14T03:43:30.610Z,100603.59
2018-09-14T03:45:59.258Z,100602.25
2018-09-14T03:48:27.670Z,100602.07
2018-09-14T03:50:56.051Z,100604.41
2018-09-14T03:53:24.552Z,100603.70
2018-09-14T03:55:53.222Z,100598.28
2018-09-14T03:58:21.651Z,100596.68
2018-09-14T04:00:50.173Z,100597.58
2018-09-14T04:03:18.595Z,100599.36
2018-09-14T04:05:47.187Z,100601.19
2018-09-14T04:08:15.759Z,100596.22
2018-09-14T04:10:44.196Z,100593.14
2018-09-14T04:13:12.647Z,100601.59
2018-09-14T04:15:41.120Z,100605.22
2018-09-14T04:18:09.539Z,100602.63
2018-09-14T04:20:38.043Z,100601.92
2018-09-14T04:23:06.715Z,100606.08
2018-09-14T04:25:35.278Z,100608.64
2018-09-14T04:28:03.758Z,100609.33
2018-09-14T04:30:32.560Z,100613.85
2018-09-14T04:33:01.071Z,100606.20
2018-09-14T04:35:29.550Z,100609.17
2018-09-14T04:37:58.249Z,100613.23
2018-09-14T04:40:26.733Z,100610.13
2018-09-14T04:42:55.275Z,100606.19
2018-09-14T04:45:24.019Z,100610.09
2018-09-14T04:47:52.516Z,100603.72
2018-09-14T04:50:20.963Z,100607.72
2018-09-14T04:52:49.555Z,100612.39
2018-09-14T04:55:17.968Z,100609.23
2018-09-14T04:57:46.671Z,100610.49
2018-09-14T05:00:15.210Z,100613.44
2018-09-14T05:02:43.631Z,100615.16
2018-09-14T05:05:12.175Z,100612.23
2018-09-14T05:07:40.702Z,100607.70
2018-09-14T05:10:09.195Z,100608.80
2018-09-14T05:12:37.647Z,100614.65
2018-09-14T05:15:06.411Z,100612.47
2018-09-14T05:17:35.126Z,100613.89
2018-09-14T05:20:03.659Z,100615.30
2018-09-14T05:22:32.181Z,100607.98
2018-09-14T05:25:00.735Z,100619.33
2018-09-14T05:27:29.132Z,100615.86
2018-09-14T05:29:57.647Z,100620.86
2018-09-14T05:32:26.122Z,100619.94
2018-09-14T05:34:54.630Z,100622.29
2018-09-14T05:37:23.374Z,100619.05
2018-09-14T05:39:51.903Z,100626.95
2018-09-14T05:42:20.424Z,100620.55
2018-09-14T05:44:49.055Z,100635.56
2018-09-14T05:47:17.594Z,100641.48
2018-09-14T05:49:46.046Z,100639.29
2018-09-14T05:52:14.683Z,100649.64
2018-09-14T05:54:43.084Z,100649.14
2018-09-14T05:57:11.553Z,100649.38
2018-09-14T05:59:40.102Z,100643.38
2018-09-14T06:02:08.555Z,100640.70
2018-09-14T06:04:37.063Z,100647.06
2018-09-14T06:07:05.613Z,100649.75
2018-09-14T06:09:34.201Z,100651.56
2018-09-14T06:12:02.647Z,100646.11
2018-09-14T06:14:31.335Z,100647.22
2018-09-14T06:16:59.857Z,100655.47
2018-09-14T06:19:28.348Z,100650.84
2018-09-14T06:21:56.950Z,100659.27
2018-09-14T06:24:25.411Z,100658.95
2018-09-14T06:26:53.923Z,100666.97
2018-09-14T06:29:22.451Z,100660.20
2018-09-14T06:31:51.025Z,100667.19
2018-09-14T06:34:19.479Z,100672.11
2018-09-14T06:36:48.162Z,100675.51
2018-09-14T06:39:16.679Z,100671.08
2018-09-14T06:41:45.179Z,100671.71
2018-09-14T06:44:13.639Z,100667.14
2018-09-14T06:46:42.178Z,100673.92
2018-09-14T06:49:10.651Z,100671.48
2018-09-14T06:51:39.831Z,100672.08
2018-09-14T06:54:08.922Z,100672.87
2018-09-14T06:56:37.403Z,100673.63
2018-09-14T06:59:06.344Z,100670.38
2018-09-14T07:01:35.007Z,100677.91
2018-09-14T07:04:03.480Z,100673.89
2018-09-14T07:06:32.146Z,100676.86
2018-09-14T07:09:01.587Z,100667.74
2018-09-14T07:11:30.059Z,100664.92
2018-09-14T07:13:58.603Z,100670.30
2018-09-14T07:16:27.187Z,100669.11
2018-09-14T07:18:55.758Z,100665.77
2018-09-14T07:21:24.418Z,100670.50
2018-09-14T07:23:52.846Z,100672.13
2018-09-14T07:26:21.275Z,100673.81
2018-09-14T07:28:50.213Z,100681.14
2018-09-14T07:31:19.110Z,100673.34
2018-09-14T07:33:47.666Z,100679.55
2018-09-14T07:36:16.215Z,100682.18
2018-09-14T07:38:44.764Z,100688.83
2018-09-14T07:41:13.232Z,100692.26
2018-09-14T07:43:41.833Z,100694.97
2018-09-14T07:46:10.314Z,100695.84
2018-09-14T07:48:38.814Z,100694.05
2018-09-14T07:51:07.555Z,100700.65
2018-09-14T07:53:36.027Z,100700.81
2018-09-14T07:56:04.482Z,100703.47
2018-09-14T07:58:33.051Z,100693.11
2018-09-14T08:01:01.811Z,100692.48
2018-09-14T08:03:30.423Z,100692.13
2018-09-14T08:05:59.199Z,100690.16
2018-09-14T08:08:27.711Z,100686.89
2018-09-14T08:10:56.159Z,100698.86
2018-09-14T08:13:24.937Z,100694.59
2018-09-14T08:15:53.503Z,100696.53
2018-09-14T08:18:22.143Z,100700.97
2018-09-14T08:20:50.841Z,100698.37
2018-09-14T08:23:19.412Z,100700.39
2018-09-14T08:25:47.827Z,100698.35
2018-09-14T08:28:16.268Z,100700.09
2018-09-14T08:30:44.783Z,100706.27
2018-09-14T08:33:13.242Z,100708.64
2018-09-14T08:35:41.910Z,100710.95
2018-09-14T08:38:10.419Z,100711.13
2018-09-14T08:40:38.871Z,100706.80
2018-09-14T08:43:07.440Z,100713.83
2018-09-14T08:45:35.941Z,100719.54
2018-09-14T08:48:04.606Z,100712.28
2018-09-14T08:50:32.926Z,100718.14
2018-09-14T08:53:01.395Z,100719.16
2018-09-14T08:55:29.877Z,100719.55
2018-09-14T08:57:58.487Z,100723.45
2018-09-14T09:00:27.007Z,100723.56
2018-09-14T09:02:55.822Z,100725.88
2018-09-14T09:05:25.390Z,100721.63
2018-09-14T09:07:53.926Z,100720.58
2018-09-14T09:10:22.394Z,100715.98
2018-09-14T09:12:51.051Z,100723.63
2018-09-14T09:15:19.600Z,100728.55
2018-09-14T09:17:48.264Z,100728.00
2018-09-14T09:20:16.691Z,100721.24
2018-09-14T09:22:45.186Z,100722.39
2018-09-14T09:25:13.688Z,100719.09
2018-09-14T09:27:43.095Z,100718.80
2018-09-14T09:30:11.776Z,100716.61
2018-09-14T09:32:40.286Z,100714.48
2018-09-14T09:35:08.984Z,100720.11
2018-09-14T09:37:37.490Z,100721.63
2018-09-14T09:40:06.026Z,100719.97
2018-09-14T09:42:35.033Z,100717.28
2018-09-14T09:45:03.619Z,100711.78
2018-09-14T09:47:32.147Z,100715.52
2018-09-14T09:50:00.702Z,100718.33
2018-09-14T09:52:29.207Z,100713.23
2018-09-14T09:54:57.722Z,100710.61
2018-09-14T09:57:26.251Z,100709.04
2018-09-14T09:59:54.734Z,100703.67
2018-09-14T10:02:28.867Z,100696.02
2018-09-14T10:05:02.542Z,100692.09
2018-09-14T10:07:31.005Z,100691.78
2018-09-14T10:09:59.496Z,100690.52
2018-09-14T10:12:27.967Z,100692.22
2018-09-14T10:14:56.676Z,100687.05
2018-09-14T10:17:25.037Z,100690.64
2018-09-14T10:19:53.814Z,100687.53
2018-09-14T10:22:22.255Z,100684.85
2018-09-14T10:24:50.722Z,100684.91
2018-09-14T10:27:19.202Z,100679.22
2018-09-14T10:29:47.729Z,100685.33
2018-09-14T10:32:16.190Z,100680.84
2018-09-14T10:34:44.643Z,100679.84
2018-09-14T10:37:13.267Z,100686.66
2018-09-14T10:39:41.789Z,100682.08
2018-09-14T10:42:10.335Z,100682.50
2018-09-14T10:44:38.767Z,100673.98
2018-09-14T10:47:07.311Z,100674.47
2018-09-14T10:49:35.771Z,100674.63
2018-09-14T10:52:04.290Z,100667.36
2018-09-14T10:54:33.162Z,100664.25
2018-09-14T10:57:01.663Z,100658.69
2018-09-14T10:59:30.183Z,100655.23
2018-09-14T11:01:58.638Z,100655.23
2018-09-14T11:04:27.205Z,100650.75
2018-09-14T11:06:55.873Z,100648.06
2018-09-14T11:09:24.244Z,100648.14
2018-09-14T11:11:52.748Z,100641.59
2018-09-14T11:14:21.378Z,100637.91
2018-09-14T11:16:49.814Z,100637.88
2018-09-14T11:19:18.312Z,100637.91
2018-09-14T11:21:46.815Z,100630.11
2018-09-14T11:24:15.270Z,100624.92
2018-09-14T11:26:43.927Z,100622.42
2018-09-14T11:29:12.392Z,100620.84
2018-09-14T11:31:40.846Z,100615.73
2018-09-14T11:34:09.367Z,100617.59
2018-09-14T11:36:37.877Z,100613.75
2018-09-14T11:39:08.655Z,100612.33
2018-09-14T11:41:37.206Z,100607.73
2018-09-14T11:44:05.727Z,100608.25
2018-09-14T11:46:34.456Z,100607.60
2018-09-14T11:49:03.055Z,100614.64
2018-09-14T11:51:31.477Z,100598.45
2018-09-14T11:54:00.123Z,100610.38
2018-09-14T11:56:28.750Z,100605.88
2018-09-14T11:58:57.188Z,100608.30
2018-09-14T12:01:25.784Z,100600.47
2018-09-14T12:03:54.322Z,100601.06
2018-09-14T12:06:22.798Z,100594.62
2018-09-14T12:08:51.224Z,100591.39
2018-09-14T12:11:20.038Z,100596.64
2018-09-14T12:13:48.585Z,100595.86
2018-09-14T12:16:16.959Z,100592.89
2018-09-14T12:18:45.822Z,100593.48
2018-09-14T12:21:14.326Z,100588.75
2018-09-14T12:23:42.730Z,100590.48
2018-09-14T12:26:11.230Z,100582.28
2018-09-14T12:28:39.706Z,100584.31
2018-09-14T12:31:08.119Z,100586.72
2018-09-14T12:33:36.600Z,100587.16
2018-09-14T12:36:05.628Z,100584.62
2018-09-14T12:38:34.031Z,100583.44
2018-09-14T12:41:02.509Z,100587.39
2018-09-14T12:43:30.978Z,100582.77
2018-09-14T12:45:59.506Z,100581.52
2018-09-14T12:48:28.143Z,100580.09
2018-09-14T12:50:56.571Z,100579.44
2018-09-14T12:53:24.998Z,100574.39
2018-09-14T12:55:53.586Z,100573.77
2018-09-14T12:58:21.999Z,100570.83
2018-09-14T13:00:50.447Z,100565.10
2018-09-14T13:03:19.115Z,100566.45
2018-09-14T13:05:47.610Z,100561.89
2018-09-14T13:08:16.043Z,100561.05
2018-09-14T13:10:44.506Z,100564.75
2018-09-14T13:13:12.972Z,100565.33
2018-09-14T13:15:41.414Z,100560.91
2018-09-14T13:18:09.843Z,100559.20
2018-09-14T13:20:38.328Z,100559.55
2018-09-14T13:23:06.810Z,100555.97
2018-09-14T13:25:35.407Z,100558.79
2018-09-14T13:28:04.649Z,100548.02
2018-09-14T13:30:33.162Z,100546.13
2018-09-14T13:33:01.755Z,100548.75
2018-09-14T13:35:30.208Z,100548.93
2018-09-14T13:37:58.698Z,100547.65
2018-09-14T13:40:27.550Z,100544.81
2018-09-14T13:42:56.067Z,100541.55
2018-09-14T13:45:24.582Z,100535.14
2018-09-14T13:47:53.232Z,100532.53
2018-09-14T13:50:21.651Z,100530.94
2018-09-14T13:52:50.526Z,100531.83
2018-09-14T13:55:19.567Z,100533.52
2018-09-14T13:57:48.083Z,100532.28
2018-09-14T14:00:16.674Z,100528.00
2018-09-14T14:02:45.519Z,100529.27
2018-09-14T14:05:13.999Z,100527.36
2018-09-14T14:07:42.452Z,100532.30
2018-09-14T14:10:11.270Z,100527.95
2018-09-14T14:12:39.775Z,100523.61
2018-09-14T14:15:08.196Z,100523.39
2018-09-14T14:17:37.062Z,100524.08
2018-09-14T14:20:05.536Z,100523.59
2018-09-14T14:22:34.027Z,100523.65
2018-09-14T14:25:02.651Z,100515.75
2018-09-14T14:27:31.115Z,100516.16
2018-09-14T14:29:59.651Z,100517.63
2018-09-14T14:32:28.138Z,100513.90
2018-09-14T14:34:56.686Z,100513.72
2018-09-14T14:37:25.209Z,100508.11
2018-09-14T14:39:53.671Z,100517.31
2018-09-14T14:42:22.188Z,100507.73
2018-09-14T14:44:50.680Z,100504.16
2018-09-14T14:47:19.190Z,100506.63
2018-09-14T14:49:47.648Z,100504.89
2018-09-14T14:52:16.076Z,100514.27
2018-09-14T14:54:44.923Z,100500.08
2018-09-14T14:57:13.347Z,100503.05
2018-09-14T14:59:41.842Z,100505.64
2018-09-14T15:02:10.391Z,100502.78
2018-09-14T15:04:38.783Z,100500.09
2018-09-14T15:07:07.386Z,100491.88
2018-09-14T15:09:35.887Z,100491.30
2018-09-14T15:12:04.398Z,100492.06
2018-09-14T15:14:32.902Z,100493.86
2018-09-14T15:17:01.699Z,100494.11
2018-09-14T15:19:30.296Z,100484.56
2018-09-14T15:21:58.830Z,100490.60
2018-09-14T15:24:27.366Z,100487.30
2018-09-14T15:26:55.988Z,100490.36
2018-09-14T15:29:24.426Z,100487.55
2018-09-14T15:31:53.063Z,100479.26
2018-09-14T15:34:21.494Z,100484.73
2018-09-14T15:36:49.976Z,100488.91
2018-09-14T15:39:18.522Z,100490.50
2018-09-14T15:41:47.040Z,100487.06
2018-09-14T15:44:15.470Z,100487.13
2018-09-14T15:46:43.990Z,100489.58
2018-09-14T15:49:12.538Z,100483.91
2018-09-14T15:51:40.963Z,100483.49
2018-09-14T15:54:09.678Z,100484.24
2018-09-14T15:56:38.077Z,100489.61
2018-09-14T15:59:06.535Z,100488.47
2018-09-14T16:01:35.072Z,100485.11
2018-09-14T16:04:03.688Z,100490.60
2018-09-14T16:06:32.230Z,100488.61
2018-09-14T16:09:01.022Z,100495.69
2018-09-14T16:11:29.487Z,100482.43
2018-09-14T16:13:57.981Z,100484.90
2018-09-14T16:16:26.499Z,100483.29
2018-09-14T16:18:55.042Z,100478.32
2018-09-14T16:21:23.466Z,100487.80
2018-09-14T16:23:52.087Z,100482.00
2018-09-14T16:26:20.546Z,100484.83
2018-09-14T16:28:49.000Z,100485.38
2018-09-14T16:31:17.531Z,100490.86
2018-09-14T16:33:46.046Z,100489.76
2018-09-14T16:36:14.650Z,100495.75
2018-09-14T16:38:43.099Z,100499.91
2018-09-14T16:41:11.571Z,100502.57
2018-09-14T16:43:40.028Z,100507.52
2018-09-14T16:46:08.536Z,100510.56
2018-09-14T16:48:37.039Z,100511.84
2018-09-14T16:51:05.530Z,100515.64
2018-09-14T16:53:34.016Z,100521.92
2018-09-14T16:56:02.475Z,100528.61
2018-09-14T16:58:30.945Z,100519.45
2018-09-14T17:00:59.562Z,100520.81
2018-09-14T17:03:28.599Z,100521.77
2018-09-14T17:05:57.312Z,100519.59
2018-09-14T17:08:25.871Z,100523.14
2018-09-14T17:10:54.496Z,100526.38
2018-09-14T17:13:22.910Z,100526.75
2018-09-14T17:15:51.835Z,100519.45
2018-09-14T17:18:20.255Z,100522.58
2018-09-14T17:20:48.750Z,100523.19
2018-09-14T17:23:17.315Z,100520.97
2018-09-14T17:25:45.855Z,100522.28
2018-09-14T17:28:14.327Z,100524.16
2018-09-14T17:30:42.779Z,100527.95
2018-09-14T17:33:11.222Z,100528.81
2018-09-14T17:35:39.769Z,100531.03
2018-09-14T17:38:08.588Z,100537.08
2018-09-14T17:40:37.026Z,100534.67
2018-09-14T17:43:05.533Z,100534.66
2018-09-14T17:45:33.951Z,100538.06
2018-09-14T17:48:02.496Z,100541.92
2018-09-14T17:50:31.001Z,100535.27
2018-09-14T17:52:59.576Z,100533.75
2018-09-14T17:55:28.088Z,100536.23
2018-09-14T17:57:56.607Z,100537.18
2018-09-14T18:00:25.231Z,100538.65
2018-09-14T18:02:53.777Z,100534.30
2018-09-14T18:05:22.442Z,100538.27
2018-09-14T18:07:50.903Z,100540.84
2018-09-14T18:10:19.323Z,100546.98
2018-09-14T18:12:47.968Z,100548.52
2018-09-14T18:15:16.455Z,100554.78
2018-09-14T18:17:44.917Z,100554.14
2018-09-14T18:20:13.446Z,100561.39
2018-09-14T18:22:42.096Z,100566.75
2018-09-14T18:25:10.661Z,100568.57
2018-09-14T18:27:39.225Z,100573.11
2018-09-14T18:30:08.475Z,100577.38
2018-09-14T18:32:37.288Z,100574.81
2018-09-14T18:35:06.287Z,100583.89
2018-09-14T18:37:35.202Z,100582.98
2018-09-14T18:40:03.814Z,100583.03
2018-09-14T18:42:32.342Z,100584.85
2018-09-14T18:45:00.871Z,100581.59
2018-09-14T18:47:29.376Z,100583.67
2018-09-14T18:49:57.970Z,100578.59
2018-09-14T18:52:26.963Z,100580.23
2018-09-14T18:54:55.526Z,100575.96
2018-09-14T18:57:24.055Z,100574.53
2018-09-14T18:59:52.624Z,100576.72
2018-09-14T19:02:21.141Z,100579.41
2018-09-14T19:04:49.617Z,100585.06
2018-09-14T19:07:18.285Z,100579.67
2018-09-14T19:09:47.112Z,100584.84
2018-09-14T19:12:15.616Z,100586.45
2018-09-14T19:14:44.555Z,100588.75
2018-09-14T19:17:13.593Z,100600.11
2018-09-14T19:19:42.653Z,100599.42
2018-09-14T19:22:11.976Z,100596.45
2018-09-14T19:24:41.272Z,100602.73
2018-09-14T19:27:10.872Z,100598.48
2018-09-14T19:29:39.918Z,100604.75
2018-09-14T19:32:09.001Z,100603.52
2018-09-14T19:34:37.990Z,100599.27
2018-09-14T19:37:07.326Z,100597.94
2018-09-14T19:39:36.304Z,100611.39
2018-09-14T19:42:05.546Z,100604.19
2018-09-14T19:44:36.215Z,100603.06
2018-09-14T19:47:05.337Z,100606.95
2018-09-14T19:49:34.373Z,100607.77
2018-09-14T19:52:03.438Z,100608.66
2018-09-14T19:54:32.647Z,100611.06
2018-09-14T19:57:01.883Z,100604.95
2018-09-14T19:59:31.176Z,100602.45
2018-09-14T20:02:00.027Z,100610.41
2018-09-14T20:04:29.426Z,100610.61
2018-09-14T20:06:58.557Z,100612.97
2018-09-14T20:09:27.503Z,100616.14
2018-09-14T20:11:56.526Z,100613.00
2018-09-14T20:14:25.471Z,100621.27
2018-09-14T20:16:54.412Z,100621.52
2018-09-14T20:19:23.277Z,100619.86
2018-09-14T20:21:52.041Z,100620.56
2018-09-14T20:24:21.761Z,100618.58
2018-09-14T20:26:50.257Z,100620.90
2018-09-14T20:29:18.833Z,100620.15
2018-09-14T20:31:47.483Z,100632.23
2018-09-14T20:34:16.128Z,100639.88
2018-09-14T20:36:44.723Z,100636.45
2018-09-14T20:39:13.755Z,100635.70
2018-09-14T20:41:42.275Z,100638.05
2018-09-14T20:44:10.992Z,100641.80
2018-09-14T20:46:40.528Z,100640.56
2018-09-14T20:49:08.951Z,100641.52
2018-09-14T20:51:37.707Z,100639.33
2018-09-14T20:54:06.349Z,100639.61
2018-09-14T20:56:34.933Z,100642.51
2018-09-14T20:59:03.747Z,100644.42
2018-09-14T21:01:32.173Z,100644.69
2018-09-14T21:04:00.606Z,100643.27
2018-09-14T21:06:29.108Z,100642.16
2018-09-14T21:08:57.586Z,100646.03
2018-09-14T21:11:26.041Z,100649.50
2018-09-14T21:13:54.556Z,100647.92
2018-09-14T21:16:22.987Z,100660.60
2018-09-14T21:18:51.415Z,100667.63
2018-09-14T21:21:20.043Z,100674.66
2018-09-14T21:23:48.538Z,100676.12
2018-09-14T21:26:17.061Z,100681.96
2018-09-14T21:28:45.526Z,100684.72
2018-09-14T21:31:13.986Z,100683.38
2018-09-14T21:33:42.385Z,100687.41
2018-09-14T21:36:11.104Z,100686.91
2018-09-14T21:38:39.494Z,100684.66
2018-09-14T21:41:07.910Z,100681.37
2018-09-14T21:43:36.533Z,100693.07
2018-09-14T21:46:05.063Z,100691.61
2018-09-14T21:48:33.563Z,100694.69
2018-09-14T21:51:02.006Z,100694.71
2018-09-14T21:53:30.563Z,100699.30
2018-09-14T21:55:59.083Z,100703.19
2018-09-14T21:58:27.550Z,100708.83
2018-09-14T22:01:01.275Z,100703.70
2018-09-14T22:03:29.966Z,100706.17
2018-09-14T22:05:58.459Z,100710.30
2018-09-14T22:08:26.919Z,100713.45
2018-09-14T22:10:55.446Z,100717.05
2018-09-14T22:13:23.948Z,100717.15
2018-09-14T22:15:52.436Z,100719.77
2018-09-14T22:18:21.178Z,100719.20
2018-09-14T22:20:49.602Z,100723.75
2018-09-14T22:23:18.110Z,100725.77
2018-09-14T22:25:46.660Z,100732.34
2018-09-14T22:28:15.107Z,100732.44
2018-09-14T22:30:43.523Z,100730.91
2018-09-14T22:33:12.018Z,100722.26
2018-09-14T22:35:40.462Z,100719.31
2018-09-14T22:38:09.080Z,100723.47
2018-09-14T22:40:37.858Z,100722.39
2018-09-14T22:43:06.286Z,100734.94
2018-09-14T22:45:34.746Z,100740.76
2018-09-14T22:48:03.187Z,100736.34
2018-09-14T22:50:31.606Z,100736.08
2018-09-14T22:53:00.038Z,100741.00
2018-09-14T22:55:28.611Z,100736.14
2018-09-14T22:57:57.127Z,100741.00
2018-09-14T23:01:31.892Z,100744.73
2018-09-14T23:04:00.342Z,100736.05
2018-09-14T23:06:28.846Z,100741.59
2018-09-14T23:08:57.314Z,100741.31
2018-09-14T23:11:25.735Z,100746.00
2018-09-14T23:13:54.243Z,100751.75
2018-09-14T23:18:51.143Z,100750.55
2018-09-14T23:21:19.699Z,100757.96
2018-09-14T23:23:48.391Z,100763.72
2018-09-14T23:26:20.391Z,100769.30
2018-09-14T23:28:48.907Z,100760.41
2018-09-14T23:31:17.382Z,100769.11
2018-09-14T23:33:45.794Z,100775.39
2018-09-14T23:36:14.349Z,100770.56
2018-09-14T23:38:42.851Z,100771.44
2018-09-14T23:41:11.244Z,100770.20
2018-09-14T23:43:39.758Z,100774.15
2018-09-14T23:46:08.262Z,100777.20
2018-09-14T23:48:36.747Z,100780.48
2018-09-14T23:51:05.235Z,100773.95
2018-09-14T23:53:33.686Z,100780.95
2018-09-14T23:56:02.232Z,100782.70
2018-09-14T23:58:31.038Z,100787.48
